createdAt,value
2018-06-13T00:01:10.379Z,95.19
2018-06-13T00:03:39.060Z,94.94
2018-06-13T00:06:08.493Z,93.65
2018-06-13T00:08:37.903Z,93.05
2018-06-13T00:11:06.587Z,91.98
2018-06-13T00:13:35.485Z,91.46
2018-06-13T00:16:04.125Z,91.19
2018-06-13T00:18:32.783Z,90.27
2018-06-13T00:21:01.460Z,90.43
2018-06-13T00:23:30.174Z,91.39
2018-06-13T00:25:58.773Z,90.75
2018-06-13T00:28:27.527Z,91.49
2018-06-13T00:30:56.183Z,90.94
2018-06-13T00:33:24.813Z,90.80
2018-06-13T00:35:53.444Z,90.97
2018-06-13T00:38:22.909Z,91.44
2018-06-13T00:40:51.537Z,92.25
2018-06-13T00:43:20.161Z,92.73
2018-06-13T00:45:48.806Z,93.53
2018-06-13T00:48:17.442Z,94.01
2018-06-13T00:50:46.072Z,93.94
2018-06-13T00:53:16.464Z,93.79
2018-06-13T00:55:55.940Z,93.80
2018-06-13T00:58:24.549Z,94.37
2018-06-13T01:00:53.174Z,93.11
2018-06-13T01:03:21.826Z,93.38
2018-06-13T01:05:50.753Z,93.35
2018-06-13T01:08:19.979Z,93.50
2018-06-13T01:10:48.950Z,93.84
2018-06-13T01:13:19.236Z,93.76
2018-06-13T01:15:47.873Z,94.17
2018-06-13T01:18:16.587Z,94.07
2018-06-13T01:20:45.268Z,94.36
2018-06-13T01:23:13.965Z,93.93
2018-06-13T01:25:42.646Z,93.72
2018-06-13T01:28:11.249Z,94.07
2018-06-13T01:30:39.851Z,94.37
2018-06-13T01:33:08.503Z,94.33
2018-06-13T01:35:37.146Z,94.64
2018-06-13T01:38:05.983Z,94.94
2018-06-13T01:40:35.944Z,95.26
2018-06-13T01:43:04.943Z,95.31
2018-06-13T01:45:33.806Z,95.71
2018-06-13T01:48:02.438Z,95.62
2018-06-13T01:50:31.104Z,95.62
2018-06-13T01:52:59.737Z,96.13
2018-06-13T01:55:28.351Z,96.02
2018-06-13T01:57:56.990Z,96.35
2018-06-13T02:00:25.647Z,96.27
2018-06-13T02:02:54.241Z,96.65
2018-06-13T02:05:22.878Z,96.84
2018-06-13T02:07:52.966Z,96.60
2018-06-13T02:10:22.293Z,96.63
2018-06-13T02:12:50.982Z,97.42
2018-06-13T02:15:19.689Z,97.74
2018-06-13T02:17:48.359Z,97.48
2018-06-13T02:20:16.985Z,97.80
2018-06-13T02:22:46.370Z,97.51
2018-06-13T02:25:18.026Z,98.19
2018-06-13T02:27:46.860Z,97.94
2018-06-13T02:30:15.732Z,97.59
2018-06-13T02:32:44.691Z,97.91
2018-06-13T02:35:13.504Z,97.86
2018-06-13T02:37:42.083Z,97.91
2018-06-13T02:40:10.754Z,97.62
2018-06-13T02:42:39.373Z,96.91
2018-06-13T02:45:08.023Z,97.62
2018-06-13T02:47:36.658Z,96.20
2018-06-13T02:50:05.380Z,95.87
2018-06-13T02:52:34.038Z,95.90
2018-06-13T02:55:02.655Z,95.65
2018-06-13T02:57:31.298Z,94.97
2018-06-13T02:59:59.938Z,94.92
2018-06-13T03:02:28.602Z,94.32
2018-06-13T03:04:57.249Z,94.09
2018-06-13T03:07:25.851Z,92.51
2018-06-13T03:09:54.470Z,91.69
2018-06-13T03:12:23.149Z,91.25
2018-06-13T03:14:51.755Z,91.44
2018-06-13T03:17:20.358Z,91.20
2018-06-13T03:19:49.016Z,90.96
2018-06-13T03:22:17.622Z,90.94
2018-06-13T03:24:46.228Z,91.70
2018-06-13T03:27:14.894Z,91.17
2018-06-13T03:29:43.554Z,90.91
2018-06-13T03:32:12.169Z,90.36
2018-06-13T03:34:41.410Z,90.42
2018-06-13T03:37:09.975Z,90.89
2018-06-13T03:39:38.637Z,90.22
2018-06-13T03:42:07.293Z,89.76
2018-06-13T03:44:35.909Z,90.06
2018-06-13T03:47:04.522Z,90.14
2018-06-13T03:49:33.093Z,89.45
2018-06-13T03:52:01.697Z,88.82
2018-06-13T03:54:30.377Z,88.83
2018-06-13T03:56:59.007Z,87.60
2018-06-13T03:59:27.658Z,87.28
2018-06-13T04:01:56.344Z,86.30
2018-06-13T04:04:24.956Z,85.83
2018-06-13T04:06:53.754Z,86.01
2018-06-13T04:09:22.417Z,86.07
2018-06-13T04:11:51.070Z,86.25
2018-06-13T04:14:19.815Z,86.77
2018-06-13T04:16:49.081Z,87.18
2018-06-13T04:19:17.677Z,86.69
2018-06-13T04:21:46.834Z,86.92
2018-06-13T04:24:15.462Z,86.73
2018-06-13T04:26:44.123Z,87.14
2018-06-13T04:29:12.808Z,87.28
2018-06-13T04:31:42.961Z,86.97
2018-06-13T04:34:11.586Z,87.70
2018-06-13T04:36:40.250Z,86.70
2018-06-13T04:39:09.609Z,85.70
2018-06-13T04:41:38.238Z,84.83
2018-06-13T04:44:06.873Z,84.71
2018-06-13T04:46:35.519Z,84.75
2018-06-13T04:49:04.167Z,83.91
2018-06-13T04:51:32.775Z,83.42
2018-06-13T04:54:01.463Z,81.94
2018-06-13T04:56:30.161Z,81.58
2018-06-13T04:58:58.830Z,81.73
2018-06-13T05:01:27.451Z,81.57
2018-06-13T05:03:56.047Z,79.93
2018-06-13T05:06:24.703Z,80.30
2018-06-13T05:08:53.390Z,80.43
2018-06-13T05:11:22.065Z,79.60
2018-06-13T05:13:50.762Z,78.92
2018-06-13T05:16:19.395Z,77.95
2018-06-13T05:18:48.024Z,78.55
2018-06-13T05:21:16.626Z,79.09
2018-06-13T05:23:45.261Z,77.46
2018-06-13T05:26:13.899Z,75.80
2018-06-13T05:28:42.514Z,75.20
2018-06-13T05:31:11.155Z,75.65
2018-06-13T05:33:39.742Z,74.22
2018-06-13T05:36:08.423Z,74.28
2018-06-13T05:38:37.062Z,73.93
2018-06-13T05:41:05.686Z,73.67
2018-06-13T05:43:34.298Z,72.67
2018-06-13T05:46:02.960Z,73.16
2018-06-13T05:48:31.997Z,73.15
2018-06-13T05:51:08.957Z,72.15
2018-06-13T05:53:45.481Z,71.88
2018-06-13T05:56:25.531Z,71.83
2018-06-13T05:58:56.033Z,71.78
2018-06-13T06:01:26.426Z,71.22
2018-06-13T06:03:58.014Z,70.25
2018-06-13T06:06:26.675Z,70.30
2018-06-13T06:08:55.493Z,68.95
2018-06-13T06:11:24.169Z,69.43
2018-06-13T06:13:52.830Z,68.23
2018-06-13T06:16:21.491Z,68.50
2018-06-13T06:18:50.305Z,66.13
2018-06-13T06:21:19.041Z,66.43
2018-06-13T06:23:47.678Z,66.36
2018-06-13T06:26:16.265Z,66.40
2018-06-13T06:28:44.942Z,67.27
2018-06-13T06:31:13.702Z,66.37
2018-06-13T06:33:42.327Z,66.64
2018-06-13T06:36:11.698Z,67.09
2018-06-13T06:38:49.595Z,67.07
2018-06-13T06:41:30.622Z,68.00
2018-06-13T06:43:59.745Z,66.31
2018-06-13T06:46:30.915Z,66.38
2018-06-13T06:49:03.643Z,67.42
2018-06-13T08:13:36.728Z,54.87
2018-06-13T08:16:05.803Z,54.40
2018-06-13T08:18:34.612Z,54.00
2018-06-13T08:21:03.306Z,53.42
2018-06-13T08:23:32.001Z,53.87
2018-06-13T08:26:00.700Z,55.06
2018-06-13T08:28:29.296Z,56.72
2018-06-13T08:30:58.115Z,56.56
2018-06-13T08:33:27.136Z,57.40
2018-06-13T08:35:55.840Z,57.23
2018-06-13T08:38:24.951Z,56.28
2018-06-13T08:40:56.645Z,55.20
2018-06-13T08:43:25.401Z,53.36
2018-06-13T08:45:54.054Z,52.30
2018-06-13T08:48:22.685Z,50.76
2018-06-13T08:50:51.980Z,49.46
2018-06-13T08:53:20.664Z,50.47
2018-06-13T08:55:49.323Z,51.29
2018-06-13T08:58:17.979Z,51.99
2018-06-13T09:00:46.616Z,52.40
2018-06-13T09:03:15.225Z,53.03
2018-06-13T09:05:43.901Z,54.58
2018-06-13T09:08:12.527Z,54.15
2018-06-13T09:10:41.669Z,53.78
2018-06-13T09:13:10.315Z,53.98
2018-06-13T09:15:38.994Z,52.73
2018-06-13T09:18:07.653Z,53.56
2018-06-13T09:20:36.354Z,53.58
2018-06-13T09:23:05.064Z,54.26
2018-06-13T09:25:33.745Z,55.07
2018-06-13T09:28:02.398Z,55.64
2018-06-13T09:30:31.103Z,57.95
2018-06-13T09:32:59.714Z,59.29
2018-06-13T09:48:20.493Z,64.90
2018-06-13T09:50:49.094Z,64.16
2018-06-13T09:53:17.757Z,65.39
2018-06-13T09:55:46.397Z,65.11
2018-06-13T09:58:15.277Z,64.92
2018-06-13T10:00:48.908Z,64.17
2018-06-13T10:03:17.511Z,64.57
2018-06-13T10:05:46.111Z,64.53
2018-06-13T10:08:15.637Z,63.06
2018-06-13T10:10:44.230Z,60.95
2018-06-13T10:13:12.898Z,60.91
2018-06-13T10:15:41.585Z,59.17
2018-06-13T10:18:10.219Z,57.91
2018-06-13T10:20:38.920Z,57.32
2018-06-13T10:23:07.516Z,55.24
2018-06-13T10:25:36.135Z,53.05
2018-06-13T10:28:05.762Z,53.90
2018-06-13T10:30:34.366Z,53.78
2018-06-13T10:33:03.005Z,54.44
2018-06-13T10:35:31.707Z,54.89
2018-06-13T10:38:00.974Z,55.01
2018-06-13T10:40:29.580Z,55.85
2018-06-13T10:42:58.209Z,55.01
2018-06-13T10:45:26.818Z,54.72
2018-06-13T10:47:55.431Z,53.03
2018-06-13T10:50:24.046Z,53.56
2018-06-13T10:52:52.714Z,53.60
2018-06-13T10:55:21.920Z,53.18
2018-06-13T10:57:50.607Z,54.39
2018-06-13T11:00:19.345Z,53.34
2018-06-13T11:02:48.043Z,52.65
2018-06-13T11:05:16.795Z,52.95
2018-06-13T11:07:45.484Z,51.77
2018-06-13T11:10:14.160Z,51.06
2018-06-13T11:12:42.786Z,50.29
2018-06-13T11:15:11.437Z,50.37
2018-06-13T11:17:40.089Z,50.93
2018-06-13T11:20:08.808Z,48.76
2018-06-13T11:22:37.460Z,48.49
2018-06-13T11:25:06.070Z,49.66
2018-06-13T11:27:34.748Z,51.43
2018-06-13T11:30:04.089Z,50.51
2018-06-13T11:32:32.783Z,50.84
2018-06-13T11:35:05.605Z,51.58
2018-06-13T11:37:34.824Z,54.34
2018-06-13T11:40:03.562Z,53.75
2018-06-13T11:42:33.259Z,53.21
2018-06-13T11:45:01.936Z,52.23
2018-06-13T11:47:30.573Z,51.59
2018-06-13T11:49:59.317Z,51.60
2018-06-13T11:52:28.005Z,51.93
2018-06-13T11:54:56.709Z,52.30
2018-06-13T11:57:25.338Z,52.42
2018-06-13T11:59:53.978Z,52.28
2018-06-13T12:02:22.594Z,51.96
2018-06-13T12:04:51.359Z,51.92
2018-06-13T12:07:19.998Z,51.51
2018-06-13T12:09:48.654Z,51.73
2018-06-13T12:12:17.312Z,51.88
2018-06-13T12:14:45.990Z,50.86
2018-06-13T12:17:14.657Z,50.41
2018-06-13T12:19:43.298Z,49.99
2018-06-13T12:22:11.930Z,49.65
2018-06-13T12:24:40.552Z,48.70
2018-06-13T12:27:09.266Z,49.25
2018-06-13T12:29:37.858Z,49.47
2018-06-13T12:32:06.568Z,49.11
2018-06-13T12:34:35.252Z,47.83
2018-06-13T12:37:03.928Z,49.12
2018-06-13T12:39:32.653Z,50.60
2018-06-13T12:42:01.315Z,49.90
2018-06-13T12:44:29.996Z,50.88
2018-06-13T12:46:58.678Z,50.59
2018-06-13T12:49:27.922Z,50.70
2018-06-13T12:51:56.743Z,51.73
2018-06-13T12:54:25.544Z,53.06
2018-06-13T12:56:54.487Z,51.93
2018-06-13T12:59:23.393Z,52.11
2018-06-13T13:01:52.139Z,52.15
2018-06-13T13:04:20.839Z,52.32
2018-06-13T13:06:49.558Z,51.14
2018-06-13T13:09:18.286Z,51.13
2018-06-13T13:11:47.022Z,52.03
2018-06-13T13:14:15.785Z,51.82
2018-06-13T13:16:44.484Z,51.95
2018-06-13T13:19:13.205Z,49.86
2018-06-13T13:21:41.995Z,50.66
2018-06-13T13:24:10.807Z,51.42
2018-06-13T13:26:39.654Z,50.99
2018-06-13T13:29:08.423Z,52.95
2018-06-13T13:31:37.215Z,53.18
2018-06-13T13:34:05.979Z,53.96
2018-06-13T13:36:34.746Z,54.78
2018-06-13T13:39:05.092Z,55.29
2018-06-13T13:41:33.809Z,55.40
2018-06-13T13:44:02.599Z,53.89
2018-06-13T13:46:31.428Z,53.93
2018-06-13T13:49:00.203Z,54.76
2018-06-13T13:51:28.953Z,54.57
2018-06-13T13:53:57.683Z,54.59
2018-06-13T13:56:26.411Z,54.09
2018-06-13T13:58:55.318Z,54.70
2018-06-13T14:01:24.398Z,55.59
2018-06-13T14:03:53.092Z,54.04
2018-06-13T14:06:21.832Z,53.16
2018-06-13T14:08:50.762Z,53.68
2018-06-13T14:11:19.559Z,54.46
2018-06-13T14:13:51.337Z,54.53
2018-06-13T14:16:20.054Z,53.77
2018-06-13T14:18:48.870Z,56.37
2018-06-13T14:21:17.725Z,57.90
2018-06-13T14:23:46.422Z,59.78
2018-06-13T14:26:15.236Z,61.21
2018-06-13T14:28:43.954Z,63.97
2018-06-13T14:31:13.975Z,67.17
2018-06-13T14:33:42.667Z,68.34
2018-06-13T14:36:12.390Z,70.20
2018-06-13T14:38:41.229Z,71.24
2018-06-13T14:41:09.985Z,71.06
2018-06-13T14:43:38.759Z,71.52
2018-06-13T14:46:07.532Z,72.57
2018-06-13T14:48:36.226Z,73.17
2018-06-13T14:51:05.592Z,73.80
2018-06-13T14:53:34.388Z,75.09
2018-06-13T14:56:08.133Z,75.27
2018-06-13T14:58:36.906Z,74.74
2018-06-13T15:01:05.645Z,75.98
2018-06-13T15:03:34.328Z,75.20
2018-06-13T15:06:03.187Z,74.08
2018-06-13T15:08:31.962Z,74.84
2018-06-13T15:11:00.696Z,75.00
2018-06-13T15:13:29.493Z,72.77
2018-06-13T15:15:58.235Z,74.04
2018-06-13T15:18:26.916Z,73.29
2018-06-13T15:20:55.794Z,73.57
2018-06-13T15:23:24.524Z,72.84
2018-06-13T15:25:53.175Z,72.20
2018-06-13T15:28:21.834Z,70.64
2018-06-13T15:30:50.617Z,68.67
2018-06-13T15:33:19.280Z,67.84
2018-06-13T15:35:50.074Z,68.07
2018-06-13T15:38:18.741Z,67.57
2018-06-13T15:40:47.385Z,66.53
2018-06-13T15:43:16.114Z,66.76
2018-06-13T15:45:44.873Z,64.63
2018-06-13T15:48:13.585Z,66.03
2018-06-13T15:50:42.311Z,65.61
2018-06-13T15:53:11.082Z,64.44
2018-06-13T15:55:39.770Z,64.30
2018-06-13T15:58:08.656Z,64.24
2018-06-13T16:00:37.319Z,63.39
2018-06-13T16:03:06.820Z,64.21
2018-06-13T16:05:35.859Z,63.49
2018-06-13T16:08:04.586Z,64.38
2018-06-13T16:10:33.241Z,63.29
2018-06-13T16:13:01.995Z,62.36
2018-06-13T16:15:30.668Z,62.21
2018-06-13T16:17:59.355Z,62.56
2018-06-13T16:20:28.115Z,62.51
2018-06-13T16:22:57.354Z,61.51
2018-06-13T16:25:26.083Z,60.89
2018-06-13T16:27:54.773Z,60.74
2018-06-13T16:30:23.552Z,61.96
2018-06-13T16:32:52.258Z,61.96
2018-06-13T16:35:21.059Z,61.06
2018-06-13T16:37:49.713Z,60.92
2018-06-13T16:40:18.337Z,61.45
2018-06-13T16:42:46.999Z,60.64
2018-06-13T16:45:15.717Z,60.37
2018-06-13T16:47:44.435Z,60.16
2018-06-13T16:50:24.066Z,60.28
2018-06-13T16:53:03.479Z,60.02
2018-06-13T16:55:32.097Z,59.19
2018-06-13T16:58:00.726Z,59.73
2018-06-13T17:00:29.446Z,59.88
2018-06-13T17:02:58.133Z,58.32
2018-06-13T17:05:26.850Z,58.93
2018-06-13T17:07:55.618Z,59.19
2018-06-13T17:10:24.355Z,57.97
2018-06-13T17:12:52.974Z,58.54
2018-06-13T17:15:21.894Z,58.62
2018-06-13T17:17:50.683Z,58.81
2018-06-13T17:20:19.527Z,58.15
2018-06-13T17:22:48.215Z,57.78
2018-06-13T17:35:10.416Z,58.21
2018-06-13T17:37:39.082Z,58.05
2018-06-13T17:40:07.861Z,58.25
2018-06-13T17:42:36.683Z,58.28
2018-06-13T17:45:05.899Z,58.62
2018-06-13T17:47:34.696Z,58.78
2018-06-13T17:50:03.431Z,58.52
2018-06-13T17:52:32.105Z,58.68
2018-06-13T17:55:00.859Z,59.53
2018-06-13T17:57:29.634Z,59.70
2018-06-13T17:59:58.371Z,59.58
2018-06-13T18:02:27.083Z,59.98
2018-06-13T18:04:55.820Z,59.83
2018-06-13T18:07:24.510Z,59.87
2018-06-13T18:09:53.212Z,59.81
2018-06-13T18:12:21.958Z,60.49
2018-06-13T18:14:50.646Z,60.77
2018-06-13T18:17:19.391Z,61.10
2018-06-13T18:19:48.095Z,60.58
2018-06-13T18:22:16.789Z,60.80
2018-06-13T18:24:45.502Z,60.11
2018-06-13T18:27:14.253Z,60.09
2018-06-13T18:29:42.933Z,59.28
2018-06-13T18:32:11.675Z,59.98
2018-06-13T18:34:40.396Z,59.48
2018-06-13T18:37:09.095Z,59.07
2018-06-13T18:39:37.777Z,59.96
2018-06-13T18:42:06.607Z,60.99
2018-06-13T18:44:35.302Z,62.58
2018-06-13T18:47:04.023Z,64.57
2018-06-13T18:49:32.707Z,65.52
2018-06-13T18:52:01.478Z,67.09
2018-06-13T18:54:30.319Z,68.92
2018-06-13T18:56:59.024Z,70.32
2018-06-13T18:59:27.673Z,70.77
2018-06-13T19:01:56.396Z,70.42
2018-06-13T19:04:25.063Z,70.32
2018-06-13T19:06:53.696Z,70.42
2018-06-13T19:09:22.377Z,70.93
2018-06-13T19:11:51.044Z,71.63
2018-06-13T19:14:19.707Z,71.59
2018-06-13T19:16:48.934Z,71.65
2018-06-13T19:19:17.598Z,72.94
2018-06-13T19:21:46.258Z,72.76
2018-06-13T19:24:14.955Z,72.78
2018-06-13T19:26:44.211Z,73.17
2018-06-13T19:29:12.847Z,73.08
2018-06-13T19:31:41.565Z,74.08
2018-06-13T19:34:10.271Z,73.39
2018-06-13T19:36:38.893Z,73.57
2018-06-13T19:39:09.014Z,73.65
2018-06-13T19:41:37.748Z,74.16
2018-06-13T19:44:06.455Z,74.74
2018-06-13T19:46:35.065Z,74.59
2018-06-13T19:49:03.745Z,75.09
2018-06-13T19:51:32.398Z,75.31
2018-06-13T19:54:06.282Z,75.61
2018-06-13T19:56:34.991Z,76.17
2018-06-13T19:59:03.657Z,76.71
2018-06-13T20:01:32.393Z,77.17
2018-06-13T20:04:06.171Z,77.30
2018-06-13T20:06:37.620Z,77.18
2018-06-13T20:09:08.164Z,76.49
2018-06-13T20:11:36.841Z,77.32
2018-06-13T20:14:10.609Z,76.99
2018-06-13T20:16:50.509Z,75.93
2018-06-13T20:19:24.740Z,76.22
2018-06-13T20:21:54.618Z,77.10
2018-06-13T20:24:23.303Z,77.55
2018-06-13T20:26:57.161Z,77.24
2018-06-13T20:29:31.036Z,77.84
2018-06-13T20:31:59.692Z,77.86
2018-06-13T20:34:28.481Z,78.01
2018-06-13T20:36:57.118Z,78.00
2018-06-13T20:39:25.819Z,77.47
2018-06-13T20:41:54.459Z,77.29
2018-06-13T20:44:23.099Z,77.32
2018-06-13T20:46:51.758Z,76.80
2018-06-13T20:49:20.386Z,77.36
2018-06-13T20:51:49.107Z,76.80
2018-06-13T20:54:17.854Z,76.76
2018-06-13T20:56:46.470Z,76.84
2018-06-13T20:59:15.134Z,76.33
2018-06-13T21:01:43.857Z,76.16
2018-06-13T21:04:12.526Z,76.24
2018-06-13T21:06:41.167Z,76.46
2018-06-13T21:09:10.547Z,76.11
2018-06-13T21:11:39.628Z,75.92
2018-06-13T21:14:08.325Z,76.33
2018-06-13T21:16:36.958Z,75.94
2018-06-13T21:19:05.628Z,76.17
2018-06-13T21:21:34.254Z,76.21
2018-06-13T21:24:03.024Z,76.50
2018-06-13T21:26:31.662Z,75.82
2018-06-13T21:29:00.272Z,76.03
2018-06-13T21:31:28.926Z,76.21
2018-06-13T21:33:57.584Z,76.33
2018-06-13T21:36:26.241Z,76.38
2018-06-13T21:38:54.958Z,75.74
2018-06-13T21:41:23.695Z,76.10
2018-06-13T21:43:52.346Z,76.05
2018-06-13T21:46:21.044Z,76.24
2018-06-13T21:48:49.740Z,76.42
2018-06-13T21:51:18.338Z,76.42
2018-06-13T21:53:47.056Z,76.37
2018-06-13T21:56:15.774Z,76.19
2018-06-13T21:58:44.439Z,76.65
2018-06-13T22:01:13.071Z,76.53
2018-06-13T22:03:41.735Z,76.82
2018-06-13T22:06:10.409Z,76.05
2018-06-13T22:08:39.059Z,76.32
2018-06-13T22:11:07.684Z,76.15
2018-06-13T22:13:36.363Z,76.47
2018-06-13T22:16:05.078Z,75.63
2018-06-13T22:18:33.720Z,76.05
2018-06-13T22:21:02.342Z,75.88
2018-06-13T22:23:31.007Z,75.45
2018-06-13T22:25:59.639Z,74.95
2018-06-13T22:28:28.278Z,75.80
2018-06-13T22:30:56.968Z,75.42
2018-06-13T22:33:25.601Z,75.62
2018-06-13T22:35:54.230Z,75.48
2018-06-13T22:38:22.938Z,75.72
2018-06-13T22:40:51.583Z,76.06
2018-06-13T22:43:20.200Z,75.59
2018-06-13T22:45:48.810Z,75.35
2018-06-13T22:48:17.465Z,75.80
2018-06-13T22:50:46.189Z,76.22
2018-06-13T22:53:14.878Z,75.90
2018-06-13T22:55:43.522Z,76.64
2018-06-13T22:58:12.223Z,76.31
2018-06-13T23:01:13.081Z,76.62
2018-06-13T23:03:43.796Z,76.51
2018-06-13T23:06:13.250Z,75.89
2018-06-13T23:08:41.861Z,77.18
2018-06-13T23:11:10.557Z,77.09
2018-06-13T23:13:41.277Z,76.95
2018-06-13T23:16:10.287Z,77.04
2018-06-13T23:18:43.508Z,77.04
2018-06-13T23:21:12.288Z,77.21
2018-06-13T23:23:40.884Z,77.78
2018-06-13T23:26:09.532Z,77.98
2018-06-13T23:28:38.135Z,77.44
2018-06-13T23:31:06.825Z,77.46
2018-06-13T23:33:38.896Z,76.36
2018-06-13T23:36:07.590Z,77.21
2018-06-13T23:38:36.242Z,77.23
2018-06-13T23:41:05.056Z,77.25
2018-06-13T23:43:33.650Z,77.62
2018-06-13T23:46:02.300Z,76.79
2018-06-13T23:48:34.366Z,77.14
2018-06-13T23:51:03.231Z,76.75
2018-06-13T23:53:32.058Z,76.99
2018-06-13T23:56:00.771Z,77.29
2018-06-13T23:58:29.439Z,76.86
